Manchaug, Massachusetts
Current Conditions -  °F | °C
As of 8:54 AM on Wednesday 28 Jan 2015 (Local Time) from KORH Reporting Station
Overcast Overcast  
Wind Chill: -7°   Ceiling: 4400
Heat Index: 10°   Visibility: 10mi
Dew Point:   Wind: 16mph
Humidity: 64%   Direction: 320°NW
Pressure: 29.86"   Gusts: 30mph
Location:  42.09°N, 71.75°W
Report Text: KORH 281354Z 32014G26KT 10SM BKN044 OVC120 M12/M18 A2986 RMK AO2 PK WND 33027/1338 SLP135 T11221178
Loading
Personal Weather Stations






























Interactive Weather Map New forecast layout! Learn more

10-Day Weather Forecast

Advertisements
Track Severe Weather on mobile